PTAO2: Poteau River, Poteau, OK

Data processed at Sat Mar 10 2018 23:48


All information presented herein is the property of the government of the United States of America and may be revised or deleted at any time without prior notice.
Dissemination of this information without the expressed written consent of the Public Affairs Office, Tulsa District U.S. Army Corps of Engineers is strictly prohibited.
These data are gathered electronically and, as presented, have not undergone any form of quality control. These data are not guaranteed to be valid or correct.
Go to home page.
Go to station list.

Upstream stations:

Downstream station:
Previous Day
Next Day
Current Day
    
SHEF ID:       PTAO2     Poteau River at Poteau, OK
STATION TYPE:  

               PRECIP     STAGE  RIV-FLOW   VOLTAGE  BAT-LOAD
                   in        ft       cfs      volt      volt
              Ccp-Rev   Ccp-Rev   Ccp-Rev   Ccp-Rev   Ccp-Rev
(US/Central)
03/08 00:00      0.00     19.94      7094     12.65     12.57
03/08 01:00      0.00     19.95      7101     12.57     12.49
03/08 02:00      0.00     19.96      7108     12.57     12.49
03/08 03:00      0.00     19.92      7080     12.57     12.49
03/08 04:00      0.00     19.90      7066     12.49     12.41
03/08 05:00      0.00     19.91      7073     12.49     12.41
03/08 06:00      0.00     19.93      7087     12.41     12.41
03/08 07:00      0.00     19.91      7073     12.41     12.33
03/08 08:00      0.00     19.92      7080     13.60     12.89
03/08 09:00      0.00     19.92      7080     13.60     13.44
03/08 10:00      0.00     19.89      7059     13.68     13.44
03/08 11:00      0.00     19.87      7045     13.53     13.68
03/08 12:00      0.00     19.87      7045     13.37     13.84
03/08 13:00      0.00     19.85      7031     13.37     13.44
03/08 14:00      0.00     19.83      7018     13.53     13.44
03/08 15:00      0.00     19.84      7025     13.37     13.53
03/08 16:00      0.00     19.84      7025     13.37     13.29
03/08 17:00      0.00     19.83      7018     13.37     13.29
03/08 18:00      0.00     19.83      7018     13.29     13.29
03/08 19:00      0.00     19.82      7011     12.97     12.89
03/08 20:00      0.00     19.82      7011     12.81     12.73
03/08 21:00      0.00     19.79      6990     12.73     12.65
03/08 22:00      0.00     19.80      6997     12.65     12.57
03/08 23:00      0.00     19.78      6983     12.65     12.57